SVGT weather

Guasipati Airport
BolĂ­var, Venezuela

Public forecast

Using degrees Celsius for public forecast. Weather courtesy of forecast.io.

METAR (pilot weather report)

Report is more than 6 hours old.

Closest report is Tumeremo Airport, 25.9 nm (48.0 km) ESE. Retrieved 2015/01/29 12:00 UTC (4 years ago):

SVTM 291200Z NI SVPA 291200 /////KT 9999 FEW013 25/22 Q1011

TAF (pilot weather forecast)

Forecast is more than 12 hours old.

Closest forecast is Kamarang Airport, 123.4 nm (228.5 km) SE. Retrieved 2019/02/09 12:22 UTC (12 days ago):

TAF SYKM 091100Z 0912/0923 05012KT 9999 SCT020 BKN037